sensor_id;sensor_type;location;lat;lon;timestamp;temperature;humidity
81315;DHT22;75773;52.534;5.686;2024-02-16T00:00:32;11.60;83.80
81315;DHT22;75773;52.534;5.686;2024-02-16T00:03:01;11.50;83.70
81315;DHT22;75773;52.534;5.686;2024-02-16T00:05:33;11.50;83.70
81315;DHT22;75773;52.534;5.686;2024-02-16T00:08:03;11.50;83.70
81315;DHT22;75773;52.534;5.686;2024-02-16T00:10:35;11.50;83.80
81315;DHT22;75773;52.534;5.686;2024-02-16T00:13:05;11.50;83.80
81315;DHT22;75773;52.534;5.686;2024-02-16T00:15:34;11.50;83.80
81315;DHT22;75773;52.534;5.686;2024-02-16T00:18:05;11.50;83.70
81315;DHT22;75773;52.534;5.686;2024-02-16T00:20:34;11.50;83.70
81315;DHT22;75773;52.534;5.686;2024-02-16T00:23:03;11.50;83.60
81315;DHT22;75773;52.534;5.686;2024-02-16T00:25:35;11.50;83.60
81315;DHT22;75773;52.534;5.686;2024-02-16T00:28:07;11.50;83.50
81315;DHT22;75773;52.534;5.686;2024-02-16T00:30:39;11.50;83.50
81315;DHT22;75773;52.534;5.686;2024-02-16T00:33:08;11.50;83.40
81315;DHT22;75773;52.534;5.686;2024-02-16T00:38:20;11.40;83.50
81315;DHT22;75773;52.534;5.686;2024-02-16T00:40:53;11.40;83.50
81315;DHT22;75773;52.534;5.686;2024-02-16T00:43:23;11.40;83.60
81315;DHT22;75773;52.534;5.686;2024-02-16T00:45:54;11.30;83.60
81315;DHT22;75773;52.534;5.686;2024-02-16T00:48:25;11.30;83.60
81315;DHT22;75773;52.534;5.686;2024-02-16T00:50:55;11.30;83.60
81315;DHT22;75773;52.534;5.686;2024-02-16T00:53:24;11.30;83.60
81315;DHT22;75773;52.534;5.686;2024-02-16T00:55:56;11.30;83.60
81315;DHT22;75773;52.534;5.686;2024-02-16T00:58:27;11.30;83.60
81315;DHT22;75773;52.534;5.686;2024-02-16T01:00:57;11.30;83.60
81315;DHT22;75773;52.534;5.686;2024-02-16T01:03:26;11.30;83.50
81315;DHT22;75773;52.534;5.686;2024-02-16T01:05:55;11.30;83.50
81315;DHT22;75773;52.534;5.686;2024-02-16T01:08:25;11.20;83.50
81315;DHT22;75773;52.534;5.686;2024-02-16T01:10:57;11.20;83.40
81315;DHT22;75773;52.534;5.686;2024-02-16T01:13:26;11.20;83.40
81315;DHT22;75773;52.534;5.686;2024-02-16T01:15:56;11.20;83.50
81315;DHT22;75773;52.534;5.686;2024-02-16T01:18:28;11.10;83.40
81315;DHT22;75773;52.534;5.686;2024-02-16T01:20:59;11.10;83.40
81315;DHT22;75773;52.534;5.686;2024-02-16T01:23:36;11.10;83.40
81315;DHT22;75773;52.534;5.686;2024-02-16T01:26:09;11.10;83.40
81315;DHT22;75773;52.534;5.686;2024-02-16T01:28:38;11.10;83.40
81315;DHT22;75773;52.534;5.686;2024-02-16T01:31:10;11.10;83.40
81315;DHT22;75773;52.534;5.686;2024-02-16T01:33:39;11.10;83.30
81315;DHT22;75773;52.534;5.686;2024-02-16T01:36:09;11.10;83.30
81315;DHT22;75773;52.534;5.686;2024-02-16T01:38:38;11.10;83.40
81315;DHT22;75773;52.534;5.686;2024-02-16T01:41:10;11.10;83.30
81315;DHT22;75773;52.534;5.686;2024-02-16T01:43:45;11.10;83.40
81315;DHT22;75773;52.534;5.686;2024-02-16T01:46:14;11.10;83.30
81315;DHT22;75773;52.534;5.686;2024-02-16T01:48:43;11.00;83.30
81315;DHT22;75773;52.534;5.686;2024-02-16T01:51:13;11.00;83.40
81315;DHT22;75773;52.534;5.686;2024-02-16T01:53:43;11.00;83.30
81315;DHT22;75773;52.534;5.686;2024-02-16T01:56:15;11.00;83.30
81315;DHT22;75773;52.534;5.686;2024-02-16T01:58:44;11.00;83.30
81315;DHT22;75773;52.534;5.686;2024-02-16T02:01:15;11.00;83.30
81315;DHT22;75773;52.534;5.686;2024-02-16T02:03:45;11.00;83.30
81315;DHT22;75773;52.534;5.686;2024-02-16T02:06:14;11.00;83.30
81315;DHT22;75773;52.534;5.686;2024-02-16T02:08:44;10.90;83.30
81315;DHT22;75773;52.534;5.686;2024-02-16T02:11:16;10.90;83.30
81315;DHT22;75773;52.534;5.686;2024-02-16T02:13:45;10.90;83.40
81315;DHT22;75773;52.534;5.686;2024-02-16T02:16:15;10.90;83.30
81315;DHT22;75773;52.534;5.686;2024-02-16T02:18:45;10.90;83.20
81315;DHT22;75773;52.534;5.686;2024-02-16T02:21:18;10.90;83.30
81315;DHT22;75773;52.534;5.686;2024-02-16T02:23:50;10.80;83.30
81315;DHT22;75773;52.534;5.686;2024-02-16T02:26:19;10.80;83.30
81315;DHT22;75773;52.534;5.686;2024-02-16T02:28:48;10.80;83.30
81315;DHT22;75773;52.534;5.686;2024-02-16T02:31:18;10.70;83.40
81315;DHT22;75773;52.534;5.686;2024-02-16T02:33:47;10.70;83.40
81315;DHT22;75773;52.534;5.686;2024-02-16T02:36:16;10.70;83.40
81315;DHT22;75773;52.534;5.686;2024-02-16T02:38:51;10.70;83.40
81315;DHT22;75773;52.534;5.686;2024-02-16T02:41:21;10.70;83.40
81315;DHT22;75773;52.534;5.686;2024-02-16T02:43:50;10.70;83.30
81315;DHT22;75773;52.534;5.686;2024-02-16T02:46:20;10.70;83.30
81315;DHT22;75773;52.534;5.686;2024-02-16T02:48:53;10.70;83.30
81315;DHT22;75773;52.534;5.686;2024-02-16T02:51:23;10.80;83.20
81315;DHT22;75773;52.534;5.686;2024-02-16T02:53:55;10.80;83.20
81315;DHT22;75773;52.534;5.686;2024-02-16T02:56:25;10.80;83.20
81315;DHT22;75773;52.534;5.686;2024-02-16T02:58:54;10.70;83.10
81315;DHT22;75773;52.534;5.686;2024-02-16T03:01:23;10.80;83.10
81315;DHT22;75773;52.534;5.686;2024-02-16T03:03:53;10.80;83.10
81315;DHT22;75773;52.534;5.686;2024-02-16T03:06:22;10.70;83.10
81315;DHT22;75773;52.534;5.686;2024-02-16T03:08:55;10.70;83.10
81315;DHT22;75773;52.534;5.686;2024-02-16T03:11:24;10.70;83.10
81315;DHT22;75773;52.534;5.686;2024-02-16T03:13:54;10.70;83.10
81315;DHT22;75773;52.534;5.686;2024-02-16T03:16:23;10.70;83.10
81315;DHT22;75773;52.534;5.686;2024-02-16T03:18:53;10.70;83.10
81315;DHT22;75773;52.534;5.686;2024-02-16T03:21:23;10.60;83.10
81315;DHT22;75773;52.534;5.686;2024-02-16T03:23:56;10.60;83.20
81315;DHT22;75773;52.534;5.686;2024-02-16T03:26:25;10.50;83.30
81315;DHT22;75773;52.534;5.686;2024-02-16T03:28:56;10.50;83.30
81315;DHT22;75773;52.534;5.686;2024-02-16T03:31:29;10.50;83.30
81315;DHT22;75773;52.534;5.686;2024-02-16T03:33:59;10.50;83.30
81315;DHT22;75773;52.534;5.686;2024-02-16T03:36:29;10.40;83.30
81315;DHT22;75773;52.534;5.686;2024-02-16T03:39:01;10.40;83.40
81315;DHT22;75773;52.534;5.686;2024-02-16T03:41:35;10.40;83.40
81315;DHT22;75773;52.534;5.686;2024-02-16T03:44:04;10.40;83.40
81315;DHT22;75773;52.534;5.686;2024-02-16T03:46:33;10.40;83.30
81315;DHT22;75773;52.534;5.686;2024-02-16T03:49:04;10.40;83.30
81315;DHT22;75773;52.534;5.686;2024-02-16T03:51:36;10.40;83.30
81315;DHT22;75773;52.534;5.686;2024-02-16T03:54:08;10.40;83.30
81315;DHT22;75773;52.534;5.686;2024-02-16T03:56:38;10.50;83.20
81315;DHT22;75773;52.534;5.686;2024-02-16T03:59:07;10.50;83.20
81315;DHT22;75773;52.534;5.686;2024-02-16T04:01:36;10.50;83.10
81315;DHT22;75773;52.534;5.686;2024-02-16T04:04:08;10.50;83.00
81315;DHT22;75773;52.534;5.686;2024-02-16T04:06:38;10.60;83.00
81315;DHT22;75773;52.534;5.686;2024-02-16T04:09:11;10.50;83.00
81315;DHT22;75773;52.534;5.686;2024-02-16T04:11:55;10.50;83.00
81315;DHT22;75773;52.534;5.686;2024-02-16T04:14:24;10.50;83.10
81315;DHT22;75773;52.534;5.686;2024-02-16T04:16:54;10.40;83.10
81315;DHT22;75773;52.534;5.686;2024-02-16T04:19:25;10.40;83.30
81315;DHT22;75773;52.534;5.686;2024-02-16T04:21:54;10.40;83.20
81315;DHT22;75773;52.534;5.686;2024-02-16T04:24:26;10.40;83.20
81315;DHT22;75773;52.534;5.686;2024-02-16T04:26:56;10.40;83.30
81315;DHT22;75773;52.534;5.686;2024-02-16T04:29:28;10.50;83.20
81315;DHT22;75773;52.534;5.686;2024-02-16T04:31:57;10.50;83.10
81315;DHT22;75773;52.534;5.686;2024-02-16T04:34:27;10.50;83.00
81315;DHT22;75773;52.534;5.686;2024-02-16T04:36:56;10.60;83.00
81315;DHT22;75773;52.534;5.686;2024-02-16T04:39:31;10.60;82.90
81315;DHT22;75773;52.534;5.686;2024-02-16T04:42:01;10.70;82.80
81315;DHT22;75773;52.534;5.686;2024-02-16T04:44:30;10.70;82.70
81315;DHT22;75773;52.534;5.686;2024-02-16T04:47:00;10.70;82.70
81315;DHT22;75773;52.534;5.686;2024-02-16T04:49:30;10.70;82.70
81315;DHT22;75773;52.534;5.686;2024-02-16T04:51:59;10.70;82.70
81315;DHT22;75773;52.534;5.686;2024-02-16T04:54:31;10.80;82.70
81315;DHT22;75773;52.534;5.686;2024-02-16T04:57:01;10.80;82.70
81315;DHT22;75773;52.534;5.686;2024-02-16T04:59:30;10.80;82.70
81315;DHT22;75773;52.534;5.686;2024-02-16T05:02:05;10.80;82.60
81315;DHT22;75773;52.534;5.686;2024-02-16T05:04:34;10.90;82.60
81315;DHT22;75773;52.534;5.686;2024-02-16T05:07:04;10.90;82.50
81315;DHT22;75773;52.534;5.686;2024-02-16T05:09:39;10.90;82.50
81315;DHT22;75773;52.534;5.686;2024-02-16T05:12:09;10.90;82.40
81315;DHT22;75773;52.534;5.686;2024-02-16T05:14:38;10.90;82.40
81315;DHT22;75773;52.534;5.686;2024-02-16T05:17:08;10.90;82.40
81315;DHT22;75773;52.534;5.686;2024-02-16T05:19:38;10.90;82.40
81315;DHT22;75773;52.534;5.686;2024-02-16T05:22:07;10.90;82.50
81315;DHT22;75773;52.534;5.686;2024-02-16T05:24:39;10.80;82.50
81315;DHT22;75773;52.534;5.686;2024-02-16T05:27:09;10.80;82.60
81315;DHT22;75773;52.534;5.686;2024-02-16T05:29:38;10.70;82.70
81315;DHT22;75773;52.534;5.686;2024-02-16T05:32:08;10.70;82.70
81315;DHT22;75773;52.534;5.686;2024-02-16T05:34:39;10.70;82.80
81315;DHT22;75773;52.534;5.686;2024-02-16T05:37:08;10.70;82.70
81315;DHT22;75773;52.534;5.686;2024-02-16T05:39:47;10.70;82.70
81315;DHT22;75773;52.534;5.686;2024-02-16T05:42:34;10.70;82.70
81315;DHT22;75773;52.534;5.686;2024-02-16T05:45:04;10.80;82.70
81315;DHT22;75773;52.534;5.686;2024-02-16T05:47:37;10.80;82.60
81315;DHT22;75773;52.534;5.686;2024-02-16T05:50:07;10.80;82.50
81315;DHT22;75773;52.534;5.686;2024-02-16T05:52:38;10.90;82.40
81315;DHT22;75773;52.534;5.686;2024-02-16T05:55:11;10.90;82.40
81315;DHT22;75773;52.534;5.686;2024-02-16T05:57:40;10.90;82.50
81315;DHT22;75773;52.534;5.686;2024-02-16T06:00:11;10.80;82.50
81315;DHT22;75773;52.534;5.686;2024-02-16T06:02:41;10.80;82.50
81315;DHT22;75773;52.534;5.686;2024-02-16T06:05:10;10.80;82.50
81315;DHT22;75773;52.534;5.686;2024-02-16T06:07:40;10.90;82.50
81315;DHT22;75773;52.534;5.686;2024-02-16T06:10:12;10.80;82.50
81315;DHT22;75773;52.534;5.686;2024-02-16T06:12:41;10.90;82.40
81315;DHT22;75773;52.534;5.686;2024-02-16T06:15:11;10.90;82.40
81315;DHT22;75773;52.534;5.686;2024-02-16T06:17:41;10.90;82.30
81315;DHT22;75773;52.534;5.686;2024-02-16T06:20:10;10.90;82.30
81315;DHT22;75773;52.534;5.686;2024-02-16T06:22:40;10.90;82.40
81315;DHT22;75773;52.534;5.686;2024-02-16T06:25:12;10.90;82.40
81315;DHT22;75773;52.534;5.686;2024-02-16T06:27:42;10.90;82.40
81315;DHT22;75773;52.534;5.686;2024-02-16T06:30:12;10.90;82.40
81315;DHT22;75773;52.534;5.686;2024-02-16T06:32:42;10.90;82.40
81315;DHT22;75773;52.534;5.686;2024-02-16T06:35:11;10.90;82.40
81315;DHT22;75773;52.534;5.686;2024-02-16T06:37:40;10.90;82.30
81315;DHT22;75773;52.534;5.686;2024-02-16T06:40:13;11.00;82.20
81315;DHT22;75773;52.534;5.686;2024-02-16T06:42:43;11.00;82.10
81315;DHT22;75773;52.534;5.686;2024-02-16T06:45:12;11.00;82.10
81315;DHT22;75773;52.534;5.686;2024-02-16T06:47:41;11.00;82.10
81315;DHT22;75773;52.534;5.686;2024-02-16T06:50:11;11.00;82.10
81315;DHT22;75773;52.534;5.686;2024-02-16T06:52:40;11.00;82.10
81315;DHT22;75773;52.534;5.686;2024-02-16T06:55:12;11.00;82.10
81315;DHT22;75773;52.534;5.686;2024-02-16T06:57:42;11.00;82.10
81315;DHT22;75773;52.534;5.686;2024-02-16T07:00:12;11.00;82.10
81315;DHT22;75773;52.534;5.686;2024-02-16T07:02:43;11.00;82.10
81315;DHT22;75773;52.534;5.686;2024-02-16T07:05:12;11.10;82.00
81315;DHT22;75773;52.534;5.686;2024-02-16T07:07:44;11.10;82.00
81315;DHT22;75773;52.534;5.686;2024-02-16T07:10:16;11.10;82.00
81315;DHT22;75773;52.534;5.686;2024-02-16T07:12:45;11.10;82.00
81315;DHT22;75773;52.534;5.686;2024-02-16T07:15:17;11.10;81.90
81315;DHT22;75773;52.534;5.686;2024-02-16T07:17:46;11.10;81.90
81315;DHT22;75773;52.534;5.686;2024-02-16T07:20:16;11.10;81.90
81315;DHT22;75773;52.534;5.686;2024-02-16T07:22:45;11.10;81.80
81315;DHT22;75773;52.534;5.686;2024-02-16T07:25:20;11.10;81.80
81315;DHT22;75773;52.534;5.686;2024-02-16T07:27:49;11.10;81.90
81315;DHT22;75773;52.534;5.686;2024-02-16T07:30:19;11.10;81.90
81315;DHT22;75773;52.534;5.686;2024-02-16T07:32:48;11.10;81.90
81315;DHT22;75773;52.534;5.686;2024-02-16T07:35:19;11.10;81.80
81315;DHT22;75773;52.534;5.686;2024-02-16T07:37:50;11.20;81.80
81315;DHT22;75773;52.534;5.686;2024-02-16T07:40:23;11.20;81.80
81315;DHT22;75773;52.534;5.686;2024-02-16T07:42:52;11.30;81.80
81315;DHT22;75773;52.534;5.686;2024-02-16T07:45:22;11.30;81.80
81315;DHT22;75773;52.534;5.686;2024-02-16T07:47:52;11.30;81.80
81315;DHT22;75773;52.534;5.686;2024-02-16T07:50:22;11.30;81.80
81315;DHT22;75773;52.534;5.686;2024-02-16T07:52:51;11.40;81.80
81315;DHT22;75773;52.534;5.686;2024-02-16T07:55:23;11.40;81.70
81315;DHT22;75773;52.534;5.686;2024-02-16T07:57:53;11.40;81.70
81315;DHT22;75773;52.534;5.686;2024-02-16T08:00:22;11.50;81.70
81315;DHT22;75773;52.534;5.686;2024-02-16T08:02:52;11.50;81.60
81315;DHT22;75773;52.534;5.686;2024-02-16T08:05:21;11.50;81.60
81315;DHT22;75773;52.534;5.686;2024-02-16T08:07:52;11.60;81.60
81315;DHT22;75773;52.534;5.686;2024-02-16T08:10:25;11.70;81.50
81315;DHT22;75773;52.534;5.686;2024-02-16T08:12:54;11.70;81.40
81315;DHT22;75773;52.534;5.686;2024-02-16T08:15:24;11.70;81.30
81315;DHT22;75773;52.534;5.686;2024-02-16T08:17:54;11.90;81.30
81315;DHT22;75773;52.534;5.686;2024-02-16T08:20:23;11.90;81.20
81315;DHT22;75773;52.534;5.686;2024-02-16T08:22:52;11.90;81.20
81315;DHT22;75773;52.534;5.686;2024-02-16T08:25:24;11.90;81.20
81315;DHT22;75773;52.534;5.686;2024-02-16T08:27:57;11.90;81.20
81315;DHT22;75773;52.534;5.686;2024-02-16T08:30:27;11.90;81.20
81315;DHT22;75773;52.534;5.686;2024-02-16T08:32:57;12.00;81.20
81315;DHT22;75773;52.534;5.686;2024-02-16T08:35:29;12.00;81.20
81315;DHT22;75773;52.534;5.686;2024-02-16T08:37:58;12.10;81.20
81315;DHT22;75773;52.534;5.686;2024-02-16T08:40:30;12.10;81.10
81315;DHT22;75773;52.534;5.686;2024-02-16T08:43:00;12.20;81.10
81315;DHT22;75773;52.534;5.686;2024-02-16T08:45:29;12.20;81.00
81315;DHT22;75773;52.534;5.686;2024-02-16T08:47:58;12.20;81.00
81315;DHT22;75773;52.534;5.686;2024-02-16T08:50:30;12.30;81.10
81315;DHT22;75773;52.534;5.686;2024-02-16T08:52:59;12.30;81.00
81315;DHT22;75773;52.534;5.686;2024-02-16T08:55:31;12.30;81.00
81315;DHT22;75773;52.534;5.686;2024-02-16T08:58:01;12.40;81.00
81315;DHT22;75773;52.534;5.686;2024-02-16T09:00:30;12.50;80.90
81315;DHT22;75773;52.534;5.686;2024-02-16T09:02:59;12.50;80.80
81315;DHT22;75773;52.534;5.686;2024-02-16T09:05:28;12.60;80.70
81315;DHT22;75773;52.534;5.686;2024-02-16T09:07:58;12.70;80.60
81315;DHT22;75773;52.534;5.686;2024-02-16T09:10:31;12.80;80.50
81315;DHT22;75773;52.534;5.686;2024-02-16T09:13:00;12.90;80.40
81315;DHT22;75773;52.534;5.686;2024-02-16T09:15:29;13.00;80.40
81315;DHT22;75773;52.534;5.686;2024-02-16T09:17:59;13.10;80.20
81315;DHT22;75773;52.534;5.686;2024-02-16T09:20:28;13.10;80.30
81315;DHT22;75773;52.534;5.686;2024-02-16T09:23:00;13.20;80.10
81315;DHT22;75773;52.534;5.686;2024-02-16T09:25:32;13.30;80.10
81315;DHT22;75773;52.534;5.686;2024-02-16T09:28:02;13.40;80.00
81315;DHT22;75773;52.534;5.686;2024-02-16T09:30:31;13.50;79.90
81315;DHT22;75773;52.534;5.686;2024-02-16T09:33:01;13.70;79.70
81315;DHT22;75773;52.534;5.686;2024-02-16T09:35:31;13.90;79.70
81315;DHT22;75773;52.534;5.686;2024-02-16T09:38:00;14.40;78.90
81315;DHT22;75773;52.534;5.686;2024-02-16T09:40:32;15.00;78.00
81315;DHT22;75773;52.534;5.686;2024-02-16T09:43:02;15.30;77.00
81315;DHT22;75773;52.534;5.686;2024-02-16T09:45:33;15.30;77.00
81315;DHT22;75773;52.534;5.686;2024-02-16T09:48:04;15.10;77.50
81315;DHT22;75773;52.534;5.686;2024-02-16T09:50:36;14.90;78.00
81315;DHT22;75773;52.534;5.686;2024-02-16T09:53:07;14.70;78.50
81315;DHT22;75773;52.534;5.686;2024-02-16T09:55:40;14.50;78.90
81315;DHT22;75773;52.534;5.686;2024-02-16T09:58:09;14.40;79.30
81315;DHT22;75773;52.534;5.686;2024-02-16T10:00:48;14.20;79.70
81315;DHT22;75773;52.534;5.686;2024-02-16T10:03:24;14.10;79.90
81315;DHT22;75773;52.534;5.686;2024-02-16T10:06:04;13.90;80.20
81315;DHT22;75773;52.534;5.686;2024-02-16T10:08:46;13.90;80.30
81315;DHT22;75773;52.534;5.686;2024-02-16T10:11:22;13.70;80.50
81315;DHT22;75773;52.534;5.686;2024-02-16T10:13:57;13.60;80.60
81315;DHT22;75773;52.534;5.686;2024-02-16T10:16:29;13.50;80.70
81315;DHT22;75773;52.534;5.686;2024-02-16T10:19:05;13.50;80.70
81315;DHT22;75773;52.534;5.686;2024-02-16T10:21:36;13.50;80.70
81315;DHT22;75773;52.534;5.686;2024-02-16T10:24:20;13.50;80.70
81315;DHT22;75773;52.534;5.686;2024-02-16T10:26:56;13.50;80.60
81315;DHT22;75773;52.534;5.686;2024-02-16T10:32:05;13.50;80.60
81315;DHT22;75773;52.534;5.686;2024-02-16T10:34:36;13.40;80.70
81315;DHT22;75773;52.534;5.686;2024-02-16T10:37:08;13.30;80.80
81315;DHT22;75773;52.534;5.686;2024-02-16T10:39:38;13.30;80.90
81315;DHT22;75773;52.534;5.686;2024-02-16T10:42:12;13.10;81.00
81315;DHT22;75773;52.534;5.686;2024-02-16T10:44:42;13.10;81.10
81315;DHT22;75773;52.534;5.686;2024-02-16T10:47:12;13.00;81.10
81315;DHT22;75773;52.534;5.686;2024-02-16T10:49:41;12.90;81.30
81315;DHT22;75773;52.534;5.686;2024-02-16T10:52:11;12.90;81.30
81315;DHT22;75773;52.534;5.686;2024-02-16T10:54:42;12.80;81.40
81315;DHT22;75773;52.534;5.686;2024-02-16T10:57:16;12.60;81.60
81315;DHT22;75773;52.534;5.686;2024-02-16T10:59:46;12.50;81.70
81315;DHT22;75773;52.534;5.686;2024-02-16T11:02:17;12.40;81.90
81315;DHT22;75773;52.534;5.686;2024-02-16T11:04:47;12.20;82.10
81315;DHT22;75773;52.534;5.686;2024-02-16T11:07:18;12.10;82.30
81315;DHT22;75773;52.534;5.686;2024-02-16T11:09:48;12.00;82.40
81315;DHT22;75773;52.534;5.686;2024-02-16T11:12:33;12.00;82.50
81315;DHT22;75773;52.534;5.686;2024-02-16T11:15:04;12.00;82.60
81315;DHT22;75773;52.534;5.686;2024-02-16T11:17:37;11.90;82.60
81315;DHT22;75773;52.534;5.686;2024-02-16T11:20:07;11.90;82.60
81315;DHT22;75773;52.534;5.686;2024-02-16T11:22:37;11.90;82.70
81315;DHT22;75773;52.534;5.686;2024-02-16T11:25:08;11.70;82.80
81315;DHT22;75773;52.534;5.686;2024-02-16T11:27:40;11.70;82.90
81315;DHT22;75773;52.534;5.686;2024-02-16T11:30:13;11.70;83.00
81315;DHT22;75773;52.534;5.686;2024-02-16T11:32:43;11.70;83.00
81315;DHT22;75773;52.534;5.686;2024-02-16T11:35:15;11.70;83.00
81315;DHT22;75773;52.534;5.686;2024-02-16T11:37:45;11.70;83.10
81315;DHT22;75773;52.534;5.686;2024-02-16T11:40:14;11.70;83.10
81315;DHT22;75773;52.534;5.686;2024-02-16T11:42:47;11.70;83.00
81315;DHT22;75773;52.534;5.686;2024-02-16T11:45:17;11.80;83.10
81315;DHT22;75773;52.534;5.686;2024-02-16T11:47:46;11.70;83.10
81315;DHT22;75773;52.534;5.686;2024-02-16T11:50:17;11.70;83.20
81315;DHT22;75773;52.534;5.686;2024-02-16T11:52:47;11.80;83.20
81315;DHT22;75773;52.534;5.686;2024-02-16T11:55:16;11.70;83.20
81315;DHT22;75773;52.534;5.686;2024-02-16T12:01:11;11.70;83.30
81315;DHT22;75773;52.534;5.686;2024-02-16T12:03:41;11.70;83.30
81315;DHT22;75773;52.534;5.686;2024-02-16T12:06:20;11.70;83.30
81315;DHT22;75773;52.534;5.686;2024-02-16T12:08:52;11.70;83.30
81315;DHT22;75773;52.534;5.686;2024-02-16T12:11:32;11.70;83.30
81315;DHT22;75773;52.534;5.686;2024-02-16T12:14:07;11.70;83.30
81315;DHT22;75773;52.534;5.686;2024-02-16T12:16:39;11.70;83.30
81315;DHT22;75773;52.534;5.686;2024-02-16T12:19:09;11.70;83.30
81315;DHT22;75773;52.534;5.686;2024-02-16T12:21:40;11.60;83.30
81315;DHT22;75773;52.534;5.686;2024-02-16T12:24:10;11.60;83.40
81315;DHT22;75773;52.534;5.686;2024-02-16T12:26:42;11.50;83.50
81315;DHT22;75773;52.534;5.686;2024-02-16T12:29:19;11.50;83.60
81315;DHT22;75773;52.534;5.686;2024-02-16T12:31:51;11.50;83.50
81315;DHT22;75773;52.534;5.686;2024-02-16T12:34:23;11.50;83.60
81315;DHT22;75773;52.534;5.686;2024-02-16T12:36:52;11.60;83.60
81315;DHT22;75773;52.534;5.686;2024-02-16T12:39:21;11.60;83.50
81315;DHT22;75773;52.534;5.686;2024-02-16T12:41:57;11.70;83.40
81315;DHT22;75773;52.534;5.686;2024-02-16T12:44:26;11.70;83.50
81315;DHT22;75773;52.534;5.686;2024-02-16T12:47:24;11.70;83.50
81315;DHT22;75773;52.534;5.686;2024-02-16T12:49:56;11.80;83.40
81315;DHT22;75773;52.534;5.686;2024-02-16T12:52:25;11.90;83.30
81315;DHT22;75773;52.534;5.686;2024-02-16T12:54:56;11.90;83.20
81315;DHT22;75773;52.534;5.686;2024-02-16T12:57:29;12.00;83.10
81315;DHT22;75773;52.534;5.686;2024-02-16T12:59:59;12.00;83.00
81315;DHT22;75773;52.534;5.686;2024-02-16T13:02:34;12.00;83.10
81315;DHT22;75773;52.534;5.686;2024-02-16T13:05:25;12.10;83.20
81315;DHT22;75773;52.534;5.686;2024-02-16T13:07:55;12.10;83.20
81315;DHT22;75773;52.534;5.686;2024-02-16T13:10:33;12.20;83.10
81315;DHT22;75773;52.534;5.686;2024-02-16T13:13:22;12.30;83.00
81315;DHT22;75773;52.534;5.686;2024-02-16T13:15:54;12.30;83.00
81315;DHT22;75773;52.534;5.686;2024-02-16T13:18:30;12.40;83.00
81315;DHT22;75773;52.534;5.686;2024-02-16T13:20:59;12.50;82.90
81315;DHT22;75773;52.534;5.686;2024-02-16T13:23:28;12.50;82.90
81315;DHT22;75773;52.534;5.686;2024-02-16T13:25:58;12.50;82.90
81315;DHT22;75773;52.534;5.686;2024-02-16T13:28:27;12.50;83.00
81315;DHT22;75773;52.534;5.686;2024-02-16T13:30:56;12.40;83.10
81315;DHT22;75773;52.534;5.686;2024-02-16T13:33:29;12.30;83.20
81315;DHT22;75773;52.534;5.686;2024-02-16T13:36:01;12.30;83.20
81315;DHT22;75773;52.534;5.686;2024-02-16T13:38:32;12.30;83.30
81315;DHT22;75773;52.534;5.686;2024-02-16T13:41:05;12.30;83.30
81315;DHT22;75773;52.534;5.686;2024-02-16T13:43:34;12.20;83.30
81315;DHT22;75773;52.534;5.686;2024-02-16T13:46:04;12.20;83.40
81315;DHT22;75773;52.534;5.686;2024-02-16T13:48:38;12.20;83.30
81315;DHT22;75773;52.534;5.686;2024-02-16T13:51:08;12.20;83.40
81315;DHT22;75773;52.534;5.686;2024-02-16T13:53:37;12.20;83.40
81315;DHT22;75773;52.534;5.686;2024-02-16T13:56:07;12.10;83.40
81315;DHT22;75773;52.534;5.686;2024-02-16T13:58:39;12.10;83.50
81315;DHT22;75773;52.534;5.686;2024-02-16T14:01:08;12.10;83.60
81315;DHT22;75773;52.534;5.686;2024-02-16T14:03:41;12.00;83.60
81315;DHT22;75773;52.534;5.686;2024-02-16T14:06:10;12.00;83.60
81315;DHT22;75773;52.534;5.686;2024-02-16T14:08:39;12.00;83.60
81315;DHT22;75773;52.534;5.686;2024-02-16T14:11:09;12.00;83.60
81315;DHT22;75773;52.534;5.686;2024-02-16T14:13:38;12.00;83.70
81315;DHT22;75773;52.534;5.686;2024-02-16T14:16:07;12.00;83.60
81315;DHT22;75773;52.534;5.686;2024-02-16T14:18:36;12.00;83.60
81315;DHT22;75773;52.534;5.686;2024-02-16T14:21:08;12.00;83.70
81315;DHT22;75773;52.534;5.686;2024-02-16T14:23:38;12.00;83.70
81315;DHT22;75773;52.534;5.686;2024-02-16T14:26:10;12.00;83.70
81315;DHT22;75773;52.534;5.686;2024-02-16T14:28:52;12.00;83.60
81315;DHT22;75773;52.534;5.686;2024-02-16T14:31:25;12.00;83.70
81315;DHT22;75773;52.534;5.686;2024-02-16T14:33:54;11.90;83.60
81315;DHT22;75773;52.534;5.686;2024-02-16T14:36:26;11.90;83.70
81315;DHT22;75773;52.534;5.686;2024-02-16T14:38:55;11.90;83.80
81315;DHT22;75773;52.534;5.686;2024-02-16T14:41:25;11.90;83.90
81315;DHT22;75773;52.534;5.686;2024-02-16T14:43:56;11.90;83.90
81315;DHT22;75773;52.534;5.686;2024-02-16T14:46:27;11.80;83.90
81315;DHT22;75773;52.534;5.686;2024-02-16T14:48:56;11.80;83.90
81315;DHT22;75773;52.534;5.686;2024-02-16T14:51:28;11.80;83.90
81315;DHT22;75773;52.534;5.686;2024-02-16T14:53:58;11.80;83.90
81315;DHT22;75773;52.534;5.686;2024-02-16T14:56:32;11.80;84.00
81315;DHT22;75773;52.534;5.686;2024-02-16T14:59:02;11.90;84.00
81315;DHT22;75773;52.534;5.686;2024-02-16T15:01:31;11.90;83.90
81315;DHT22;75773;52.534;5.686;2024-02-16T15:04:01;11.90;83.90
81315;DHT22;75773;52.534;5.686;2024-02-16T15:06:32;11.90;83.90
81315;DHT22;75773;52.534;5.686;2024-02-16T15:09:03;11.90;83.80
81315;DHT22;75773;52.534;5.686;2024-02-16T15:11:32;11.90;83.80
81315;DHT22;75773;52.534;5.686;2024-02-16T15:14:02;11.90;83.80
81315;DHT22;75773;52.534;5.686;2024-02-16T15:16:31;11.90;83.70
81315;DHT22;75773;52.534;5.686;2024-02-16T15:19:01;11.90;83.70
81315;DHT22;75773;52.534;5.686;2024-02-16T15:21:33;11.90;83.70
81315;DHT22;75773;52.534;5.686;2024-02-16T15:24:05;11.90;83.70
81315;DHT22;75773;52.534;5.686;2024-02-16T15:26:34;11.90;83.70
81315;DHT22;75773;52.534;5.686;2024-02-16T15:29:11;11.80;83.70
81315;DHT22;75773;52.534;5.686;2024-02-16T15:31:40;11.80;83.90
81315;DHT22;75773;52.534;5.686;2024-02-16T15:34:09;11.70;83.90
81315;DHT22;75773;52.534;5.686;2024-02-16T15:36:42;11.70;83.90
81315;DHT22;75773;52.534;5.686;2024-02-16T15:39:11;11.70;83.90
81315;DHT22;75773;52.534;5.686;2024-02-16T15:41:41;11.70;83.80
81315;DHT22;75773;52.534;5.686;2024-02-16T15:44:10;11.70;83.80
81315;DHT22;75773;52.534;5.686;2024-02-16T15:46:41;11.70;83.90
81315;DHT22;75773;52.534;5.686;2024-02-16T15:49:10;11.70;83.80
81315;DHT22;75773;52.534;5.686;2024-02-16T15:51:45;11.70;83.80
81315;DHT22;75773;52.534;5.686;2024-02-16T15:54:14;11.70;83.80
81315;DHT22;75773;52.534;5.686;2024-02-16T15:56:47;11.70;83.80
81315;DHT22;75773;52.534;5.686;2024-02-16T15:59:17;11.60;83.90
81315;DHT22;75773;52.534;5.686;2024-02-16T16:01:46;11.60;84.00